Alta Hourly Wx Roundup
ALTA 12/16/2017
click here for graph

        DATE  TIME   h2o  Snow Temp F Temp F Temp F  RH %  RH %  RH % W_Spd W_Dir W_Gust W_Spd W_Dir W_Gust Baldy Baldy Baldy   h2o
                    9664  9664    8550   10500   11068  8550 10500 11068  8550  8550   8550 10500 10500  10500   Spd   Dir  Gust  8550
                   (1HR)  12HR     AVG     AVG     AVG   AVG   AVG   AVG   AVG   AVG    MAX   AVG   AVG    MAX   AVG   AVG   MAX (1HR)

  12/16/2017 18:00  0.00   0.0      19      11      10    91    90    87     3   251      7     3   300      7     8   282    11  0.00
  12/16/2017 17:00  0.01   0.0      19      12      12    91    90    88     6   256     11     3   312      7     6   272    12  0.00
  12/16/2017 16:00  0.00   0.0      21      13       9    90    91    86     7   259     14     7   303     12    10   277    14  0.00
  12/16/2017 15:00  0.02   0.0      21      14      10    91    91    86     8   258     14     8   295     12    12   272    16  0.01
  12/16/2017 14:00  0.01   0.0      22      16      13    91    92    88     7   257     15     5   297     12     8   261    14  0.00
  12/16/2017 13:00  0.00   0.0      24      19      17    91    93    90     6   261     16     4   309     10     4   233     8  0.00
  12/16/2017 12:00  0.00   0.0      27      20      17    81    94    90     5   258     11     6   288     12     7   249    11  0.00
  12/16/2017 11:00  0.00   0.0      27      21      17    68    86    90     5   250     12     5   293     13    10   258    17  0.00
  12/16/2017 10:00  0.00   0.0      26      21      17    66    85    90     1   170      4     9   282     15    15   262    19  0.00
  12/16/2017 09:00  0.00   0.0      25      20      15    66    67    74     2   154      4     8   274     16    14   257    19  0.00
  12/16/2017 08:00  0.00   0.0      24      22      20    68    52    45     3   177      9     5   244      9     9   200    17  0.00
  12/16/2017 07:00  0.00   0.0      25      21      18    62    59    55     4   224     13     5   193     15     7   175    16  0.00
  12/16/2017 06:00  0.00   0.0      29      25      21    58    57    60     4   245     15     7   270     14    10   244    18  0.00
  12/16/2017 05:00  0.00   0.0      32      26      21    55    56    60     2   189      6     8   282     17    12   260    20  0.00
  12/16/2017 04:00  0.00   0.0      33      26      22    51    49    51     3   238     14    11   286     24    14   253    31  0.00
  12/16/2017 03:00  0.00   0.0      31      28      24    45    28    28     3   194     10    10   296     23    24   267    35  0.00
  12/16/2017 02:00  0.00   0.0      29      29      25    46    19    19     3   113      6    12   291     25    19   256    31  0.00
  12/16/2017 01:00  0.00   0.0      27      30      26    43    17    18     3   111      6    14   281     22    14   255    23  0.00
  12/15/2017 24:00  0.00   0.0      26      30      26    40    16    17     3   110      6    14   278     24    14   255    25  0.00
  12/15/2017 23:00  0.00   0.0      26      31      27    37    13    13     4   114      7    13   286     21    16   254    25  0.00
  12/15/2017 22:00  0.00   0.0      27      32      28    36    10    11     3   116      7    11   282     21    17   250    26  0.00
  12/15/2017 21:00  0.00   0.0      27      32      28    34     9    10     3   114      7    12   282     21    18   251    28  0.00
  12/15/2017 20:00  0.00   0.0      28      32      28    32     8     8     3   121     10    11   284     21    17   253    27  0.00
  12/15/2017 19:00  0.00   0.0      30      33      29    32     7     6     4   120      9    10   290     21    17   251    26  0.00


click here for graph